Bromley, United Kingdom
Current Conditions -  °F | °C
As of 7:50 AM on Tuesday 21 Oct 2014 (Local Time) from EGLC Reporting Station
Rain Showers Rain Showers  
Wind Chill: 15°   Ceiling: 2400
Heat Index: 15°   Visibility: 6mi
Dew Point: 12°   Wind: 20mph
Humidity: 82%   Direction: 240°WSW
Pressure: 29.53"   Gusts: 31mph
Location:  51.41°N, 0.01°E
Report Text: EGLC 210650Z 24017G27KT 9999 -SHRA FEW018 BKN024 15/12 Q1000 RESHRA
Loading
Personal Weather Stations






























Interactive Weather Map
Tropical Storm Tracking
New forecast layout! Learn more

10-Day Weather Forecast

Advertisements
Track Severe Weather on mobile